Time;durP1;ratioP1;P1;durP2;ratioP2;P2;SDS_P1;SDS_P2;PMS_P1;PMS_P2;Temp;Humidity;BMP_temperature;BMP_pressure;BME280_temperature;BME280_humidity;BME280_pressure;Samples;Min_cycle;Max_cycle;Signal;HPM_P1;HPM_P2
2023/07/28 00:00:49;;;;;;;4.53;3.30;;;;;;;20.46;49.49;92858.69;5032417;28;20037;-91
2023/07/28 00:03:28;;;;;;;4.15;3.15;;;;;;;20.47;49.56;92857.41;5026249;28;20041;-90
2023/07/28 00:05:55;;;;;;;4.15;3.20;;;;;;;20.48;49.61;92858.16;5030224;28;20144;-90
2023/07/28 00:08:29;;;;;;;3.78;2.90;;;;;;;20.47;49.54;92856.69;5028344;28;20045;-91
2023/07/28 00:11:12;;;;;;;4.40;3.20;;;;;;;20.46;49.57;92853.19;5045719;28;20033;-91
2023/07/28 00:13:39;;;;;;;4.38;2.97;;;;;;;20.45;49.69;92853.72;5038354;28;20063;-91
2023/07/28 00:16:17;;;;;;;4.57;3.13;;;;;;;20.46;49.51;92844.22;5048791;28;20460;-91
2023/07/28 00:18:48;;;;;;;4.28;3.35;;;;;;;20.47;49.55;92842.97;5048230;28;20053;-91
2023/07/28 00:21:15;;;;;;;4.88;2.95;;;;;;;20.49;49.67;92840.41;5046648;28;20047;-91
2023/07/28 00:23:53;;;;;;;3.80;2.67;;;;;;;20.47;49.56;92837.47;5033036;28;20033;-91
2023/07/28 00:26:35;;;;;;;4.07;3.00;;;;;;;20.44;49.70;92831.03;5010219;28;20078;-90
2023/07/28 00:29:01;;;;;;;4.93;3.25;;;;;;;20.47;49.62;92838.19;5010666;28;20128;-91
2023/07/28 00:31:28;;;;;;;4.82;2.92;;;;;;;20.47;49.51;92837.47;4994656;28;20042;-91
2023/07/28 00:33:55;;;;;;;4.40;3.40;;;;;;;20.48;49.52;92833.44;5025398;28;20034;-91
2023/07/28 00:36:30;;;;;;;4.25;2.95;;;;;;;20.45;49.51;92835.25;4993363;28;20053;-90
2023/07/28 00:38:58;;;;;;;4.43;3.45;;;;;;;20.46;49.86;92825.75;5007042;28;20038;-91
2023/07/28 00:41:24;;;;;;;4.80;2.88;;;;;;;20.45;49.60;92827.03;4981192;28;20134;-91
2023/07/28 00:43:50;;;;;;;4.82;3.22;;;;;;;20.45;49.55;92824.28;5023607;28;20034;-90
2023/07/28 00:46:16;;;;;;;3.88;2.97;;;;;;;20.47;49.76;92826.47;5006599;28;20112;-91
2023/07/28 00:48:41;;;;;;;4.82;3.22;;;;;;;20.45;49.60;92821.53;4991102;28;20124;-91
2023/07/28 00:51:18;;;;;;;3.53;2.70;;;;;;;20.45;49.60;92824.28;5007745;28;20042;-90
2023/07/28 00:53:46;;;;;;;5.00;3.47;;;;;;;20.44;49.57;92811.06;4990871;28;20041;-91
2023/07/28 00:56:21;;;;;;;4.20;3.13;;;;;;;20.44;49.59;92819.31;4989618;28;20038;-91
2023/07/28 00:58:59;;;;;;;4.57;3.20;;;;;;;20.44;49.87;92808.34;4979055;28;20038;-91
2023/07/28 01:01:25;;;;;;;3.67;2.90;;;;;;;20.42;49.73;92808.88;4992383;28;20081;-91
2023/07/28 01:03:53;;;;;;;4.03;3.17;;;;;;;20.44;49.47;92813.81;5005626;28;20037;-91
2023/07/28 01:06:36;;;;;;;3.78;2.75;;;;;;;20.43;50.02;92813.09;4995817;28;20110;-91
2023/07/28 01:09:28;;;;;;;3.75;3.08;;;;;;;20.44;49.75;92814.56;5042959;28;20048;-91
2023/07/28 01:12:01;;;;;;;3.80;3.38;;;;;;;20.45;49.76;92812.56;5010675;28;20068;-92
2023/07/28 01:14:28;;;;;;;3.08;2.42;;;;;;;20.44;49.97;92817.31;5000250;28;20049;-91
2023/07/28 01:16:57;;;;;;;3.70;3.10;;;;;;;20.45;49.90;92815.28;5005276;28;20654;-91
2023/07/28 01:19:23;;;;;;;4.35;3.05;;;;;;;20.46;49.92;92800.31;4988151;28;20065;-91
2023/07/28 01:22:11;;;;;;;4.90;3.10;;;;;;;20.45;49.90;92810.53;5001257;28;20053;-91
2023/07/28 01:25:04;;;;;;;4.18;3.15;;;;;;;20.45;50.01;92807.78;4970487;28;20034;-90
2023/07/28 01:27:29;;;;;;;5.55;3.22;;;;;;;20.44;49.78;92800.09;4986577;28;20688;-92
2023/07/28 01:29:55;;;;;;;4.70;3.15;;;;;;;20.44;49.88;92789.13;4970686;28;20042;-92
2023/07/28 01:32:22;;;;;;;3.28;2.88;;;;;;;20.48;49.73;92800.50;4961919;28;20086;-91
2023/07/28 01:34:52;;;;;;;5.82;3.13;;;;;;;20.46;49.95;92803.03;4950490;28;20070;-91
2023/07/28 01:37:18;;;;;;;4.85;3.35;;;;;;;20.46;49.80;92803.03;4929738;28;20117;-91
2023/07/28 01:39:44;;;;;;;2.97;2.60;;;;;;;20.46;49.80;92783.81;4985008;28;20046;-91
2023/07/28 01:42:19;;;;;;;3.50;2.60;;;;;;;20.46;49.90;92781.06;4971600;28;20059;-91
2023/07/28 01:44:50;;;;;;;3.13;2.83;;;;;;;20.47;49.77;92782.56;4993498;28;20042;-90
2023/07/28 01:47:16;;;;;;;3.50;2.58;;;;;;;20.46;49.73;92798.28;4994294;28;20513;-91
2023/07/28 01:49:50;;;;;;;4.82;2.90;;;;;;;20.46;49.77;92797.56;4964865;28;20038;-92
2023/07/28 01:52:45;;;;;;;3.83;2.97;;;;;;;20.44;49.83;92787.09;4985867;28;20038;-90
2023/07/28 01:55:13;;;;;;;3.75;2.70;;;;;;;20.44;49.85;92762.41;4964154;28;20133;-91
2023/07/28 01:57:40;;;;;;;3.40;2.72;;;;;;;20.43;49.91;92763.66;4991468;28;20038;-91
2023/07/28 02:00:08;;;;;;;4.38;3.08;;;;;;;20.46;49.80;92761.84;4996437;28;20088;-91
2023/07/28 02:02:37;;;;;;;3.90;3.00;;;;;;;20.45;49.83;92750.16;5010365;28;20512;-91
2023/07/28 02:05:06;;;;;;;3.63;2.92;;;;;;;20.44;50.00;92761.66;5010465;28;20056;-90
2023/07/28 02:07:36;;;;;;;3.80;2.90;;;;;;;20.44;49.95;92750.69;5006749;28;20041;-91
2023/07/28 02:10:06;;;;;;;3.83;2.60;;;;;;;20.44;49.84;92745.19;5024753;28;20034;-91
2023/07/28 02:12:33;;;;;;;3.13;2.30;;;;;;;20.45;49.89;92747.41;5043511;28;20124;-91
2023/07/28 02:14:59;;;;;;;3.92;2.60;;;;;;;20.46;49.89;92753.63;4994170;28;20038;-91
2023/07/28 02:17:34;;;;;;;3.90;2.85;;;;;;;20.45;49.80;92752.88;4995721;28;20037;-91
2023/07/28 02:20:01;;;;;;;4.60;3.22;;;;;;;20.46;49.60;92761.84;5009241;28;20038;-91
2023/07/28 02:22:27;;;;;;;3.42;2.83;;;;;;;20.47;49.72;92768.81;4985496;28;20067;-91
2023/07/28 02:24:54;;;;;;;3.35;2.63;;;;;;;20.45;49.68;92771.38;4993499;28;20041;-91
2023/07/28 02:27:21;;;;;;;4.10;2.63;;;;;;;20.42;49.81;92759.47;4997308;28;20037;-91
2023/07/28 02:29:47;;;;;;;4.07;2.95;;;;;;;20.44;49.89;92762.41;5009027;28;20034;-91
2023/07/28 02:32:13;;;;;;;4.13;2.58;;;;;;;20.45;49.75;92765.88;5020713;28;20041;-91
2023/07/28 02:34:48;;;;;;;4.72;2.95;;;;;;;20.42;49.77;92770.44;5025440;28;20071;-91
2023/07/28 02:37:15;;;;;;;4.00;3.17;;;;;;;20.45;49.75;92769.38;5006176;28;20046;-91
2023/07/28 02:39:48;;;;;;;2.97;2.25;;;;;;;20.43;49.78;92774.66;4999498;28;20049;-92
2023/07/28 02:42:15;;;;;;;3.50;2.63;;;;;;;20.43;49.71;92773.91;4991813;28;20050;-91
2023/07/28 02:44:41;;;;;;;3.75;3.10;;;;;;;20.44;49.68;92781.63;5010145;28;20093;-91
2023/07/28 02:47:07;;;;;;;3.05;2.58;;;;;;;20.43;49.84;92776.66;4974013;28;20036;-91
2023/07/28 02:49:43;;;;;;;3.08;2.47;;;;;;;20.44;49.66;92783.63;4914072;29;20047;-92
2023/07/28 02:52:17;;;;;;;3.35;2.47;;;;;;;20.44;49.62;92778.13;4914370;29;20044;-92
2023/07/28 02:54:43;;;;;;;3.80;2.65;;;;;;;20.44;49.90;92786.38;4912452;29;20044;-91
2023/07/28 02:57:24;;;;;;;3.25;2.30;;;;;;;20.44;49.96;92783.63;4912846;29;20043;-91
2023/07/28 02:59:51;;;;;;;3.53;2.63;;;;;;;20.45;49.73;92785.09;4914837;29;20040;-91
2023/07/28 03:02:18;;;;;;;2.58;2.30;;;;;;;20.42;49.79;92789.66;4906711;29;20545;-92
2023/07/28 03:04:45;;;;;;;3.85;2.60;;;;;;;20.46;49.69;92778.34;4917304;29;20072;-91
2023/07/28 03:07:12;;;;;;;3.83;2.70;;;;;;;20.46;49.77;92790.06;4931167;29;20090;-91
2023/07/28 03:09:46;;;;;;;3.00;2.47;;;;;;;20.45;49.71;92779.59;4947866;29;20068;-91
2023/07/28 03:12:23;;;;;;;3.30;2.47;;;;;;;20.45;49.74;92776.88;4948314;29;20087;-91
2023/07/28 03:14:56;;;;;;;3.22;2.72;;;;;;;20.43;49.78;92776.66;4914090;29;20539;-91
2023/07/28 03:17:25;;;;;;;4.00;2.50;;;;;;;20.43;49.66;92787.66;4953414;29;20054;-91
2023/07/28 03:20:03;;;;;;;3.22;2.38;;;;;;;20.43;49.71;92780.16;4915320;28;20035;-91
2023/07/28 03:22:30;;;;;;;4.00;2.30;;;;;;;20.42;49.88;92789.66;4922213;29;20062;-91
2023/07/28 03:24:58;;;;;;;3.35;2.60;;;;;;;20.43;49.88;92795.88;4976114;28;20560;-91
2023/07/28 03:27:28;;;;;;;3.35;2.55;;;;;;;20.43;50.13;92787.66;4951270;28;20097;-91
2023/07/28 03:29:54;;;;;;;4.03;2.90;;;;;;;20.46;49.77;92783.81;4978492;28;20058;-91
2023/07/28 03:32:22;;;;;;;4.43;2.90;;;;;;;20.46;49.70;92786.56;4957627;28;20035;-91
2023/07/28 03:34:50;;;;;;;3.72;2.80;;;;;;;20.44;49.87;92778.88;4953896;28;20039;-90
2023/07/28 03:37:28;;;;;;;3.15;2.53;;;;;;;20.43;49.90;92776.66;4969829;28;20563;-91
2023/07/28 03:39:53;;;;;;;3.67;2.67;;;;;;;20.41;49.88;92785.44;4928897;29;20057;-91
2023/07/28 03:42:31;;;;;;;3.10;2.58;;;;;;;20.44;49.72;92792.59;4926096;29;20044;-92
2023/07/28 03:44:58;;;;;;;3.63;2.67;;;;;;;20.45;49.89;92779.59;4911256;29;20047;-91
2023/07/28 03:47:25;;;;;;;3.63;2.67;;;;;;;20.45;49.73;92783.09;4915874;29;20572;-91
2023/07/28 03:50:01;;;;;;;3.38;2.83;;;;;;;20.43;49.95;92784.91;4900213;29;20068;-91
2023/07/28 03:52:36;;;;;;;3.15;2.60;;;;;;;20.41;49.97;92790.94;4916046;29;20135;-91
2023/07/28 03:55:02;;;;;;;3.78;2.70;;;;;;;20.44;49.85;92784.38;4928608;29;20040;-91
2023/07/28 03:57:30;;;;;;;4.18;2.60;;;;;;;20.43;49.79;92793.13;4938707;29;20063;-91
2023/07/28 04:00:05;;;;;;;4.60;2.75;;;;;;;20.41;49.92;92796.41;4948592;29;20522;-92
2023/07/28 04:02:33;;;;;;;4.35;2.75;;;;;;;20.42;49.96;92786.16;4968607;28;20046;-91
2023/07/28 04:05:00;;;;;;;4.00;2.72;;;;;;;20.42;50.14;92789.66;4965518;29;20041;-91
2023/07/28 04:07:26;;;;;;;2.50;2.10;;;;;;;20.42;50.05;92786.16;4940701;28;20038;-91
2023/07/28 04:09:54;;;;;;;3.30;2.53;;;;;;;20.42;50.16;92783.44;4964289;28;20190;-91
2023/07/28 04:12:29;;;;;;;3.60;2.40;;;;;;;20.43;49.92;92776.66;4925273;29;20059;-91
2023/07/28 04:15:09;;;;;;;3.08;2.30;;;;;;;20.42;50.03;92778.66;4929648;29;20048;-91
2023/07/28 04:17:42;;;;;;;3.47;2.65;;;;;;;20.44;50.00;92783.63;4915224;29;20091;-91
2023/07/28 04:20:18;;;;;;;3.25;2.47;;;;;;;20.47;50.09;92788.03;4915593;29;20055;-92
2023/07/28 04:22:47;;;;;;;2.92;2.33;;;;;;;20.44;49.89;92794.59;4931855;29;20277;-92
2023/07/28 04:25:14;;;;;;;3.30;2.28;;;;;;;20.44;49.87;92798.09;4953014;28;20042;-91
2023/07/28 04:27:42;;;;;;;3.75;2.78;;;;;;;20.44;49.85;92800.09;4960706;28;20045;-91
2023/07/28 04:30:11;;;;;;;4.97;2.35;;;;;;;20.47;49.77;92799.03;4971447;28;20068;-91
2023/07/28 04:32:52;;;;;;;3.88;1.80;;;;;;;20.46;49.87;92797.56;4973765;28;20046;-92
2023/07/28 04:35:17;;;;;;;2.45;1.90;;;;;;;20.47;49.65;92794.28;4974264;28;20096;-92
2023/07/28 04:37:55;;;;;;;2.40;1.90;;;;;;;20.44;49.77;92808.34;4944448;29;20164;-92
2023/07/28 04:40:30;;;;;;;2.45;1.75;;;;;;;20.43;49.78;92812.34;4927237;29;20043;-91
2023/07/28 04:42:56;;;;;;;3.28;2.30;;;;;;;20.47;49.63;92816.25;4894284;29;20053;-91
2023/07/28 04:45:24;;;;;;;6.25;2.13;;;;;;;20.44;49.62;92816.56;4905723;28;20058;-91
2023/07/28 04:47:58;;;;;;;2.55;2.05;;;;;;;20.45;49.62;92823.53;4950969;28;20031;-92
2023/07/28 04:50:24;;;;;;;2.53;2.03;;;;;;;20.45;49.63;92818.03;4925078;28;20526;-91
2023/07/28 04:52:51;;;;;;;2.90;2.17;;;;;;;20.43;49.65;92820.59;4937475;29;20131;-91
2023/07/28 04:55:26;;;;;;;2.63;1.88;;;;;;;20.45;49.63;92829.75;4934706;28;20039;-91
2023/07/28 04:57:53;;;;;;;3.65;1.85;;;;;;;20.50;49.33;92817.16;4922827;29;20035;-90
2023/07/28 05:00:21;;;;;;;4.00;1.75;;;;;;;20.47;49.56;92818.25;4969395;28;20081;-91
2023/07/28 05:02:49;;;;;;;3.95;2.40;;;;;;;20.49;49.54;92821.19;4943323;28;20039;-91
2023/07/28 05:05:17;;;;;;;2.60;1.80;;;;;;;20.50;49.67;92828.16;4973876;28;20135;-92
2023/07/28 05:07:51;;;;;;;2.67;1.80;;;;;;;20.53;49.27;92827.09;4990615;28;20068;-91
2023/07/28 05:10:20;;;;;;;2.08;1.88;;;;;;;20.55;49.55;92826.53;4997713;28;20044;-92
2023/07/28 05:12:53;;;;;;;2.83;1.85;;;;;;;20.57;48.98;92826.75;4980745;28;20050;-91
2023/07/28 05:15:32;;;;;;;2.58;1.90;;;;;;;20.59;49.22;92830.41;4988571;28;20041;-91
2023/07/28 05:18:00;;;;;;;1.88;1.42;;;;;;;20.59;49.36;92829.66;5042011;28;20092;-91
2023/07/28 05:20:26;;;;;;;2.78;2.22;;;;;;;20.59;49.37;92824.91;5046560;28;20100;-91
2023/07/28 05:23:00;;;;;;;3.00;1.42;;;;;;;20.64;49.40;92826.03;5058594;28;20040;-92
2023/07/28 05:25:38;;;;;;;2.35;1.58;;;;;;;20.63;49.47;92824.56;5027360;28;20048;-92
2023/07/28 05:28:04;;;;;;;1.75;1.30;;;;;;;20.62;49.38;92820.34;5004310;28;20095;-91
2023/07/28 05:30:31;;;;;;;2.20;1.77;;;;;;;20.63;49.16;92819.81;5044392;28;20057;-91
2023/07/28 05:33:07;;;;;;;2.15;1.70;;;;;;;20.64;49.39;92834.28;5010211;28;20045;-91
2023/07/28 05:36:07;;;;;;;4.78;1.65;;;;;;;20.69;49.41;92825.91;4953163;28;20108;-91
2023/07/28 05:39:02;;;;;;;2.42;1.77;;;;;;;20.71;49.00;92830.84;4955468;29;20051;-91
2023/07/28 05:41:39;;;;;;;1.83;1.33;;;;;;;20.72;49.26;92821.34;4946615;29;20529;-91
2023/07/28 05:44:06;;;;;;;1.83;1.60;;;;;;;20.71;49.04;92825.34;4972224;28;20564;-91
2023/07/28 05:46:33;;;;;;;1.80;1.30;;;;;;;20.72;49.07;92833.06;4955796;28;20150;-92
2023/07/28 05:49:10;;;;;;;2.72;1.80;;;;;;;20.75;49.20;92829.25;4935881;29;20059;-91
2023/07/28 05:51:48;;;;;;;1.30;1.20;;;;;;;20.75;49.13;92828.50;4971070;28;20066;-91
2023/07/28 05:54:38;;;;;;;1.45;1.10;;;;;;;20.75;49.33;92820.25;4940583;28;20043;-91
2023/07/28 05:57:08;;;;;;;1.95;1.52;;;;;;;20.80;49.21;92831.09;4954609;28;20047;-92
2023/07/28 05:59:43;;;;;;;1.42;1.15;;;;;;;20.77;49.17;92834.19;4950645;29;20047;-91
2023/07/28 06:02:14;;;;;;;2.28;1.40;;;;;;;20.79;49.12;92828.88;4947391;28;20071;-92
2023/07/28 06:04:41;;;;;;;2.33;1.90;;;;;;;20.83;49.08;92824.50;4931771;29;20451;-91
2023/07/28 06:07:10;;;;;;;2.03;1.50;;;;;;;20.84;49.15;92825.25;4874557;29;20080;-92
2023/07/28 06:09:39;;;;;;;1.58;1.38;;;;;;;20.85;49.12;92829.47;4899394;29;20092;-92
2023/07/28 06:12:21;;;;;;;1.77;1.45;;;;;;;20.86;49.13;92822.69;4850671;29;20038;-92
2023/07/28 06:15:09;;;;;;;7.45;1.65;;;;;;;20.88;49.14;92825.63;4835097;29;20042;-92
2023/07/28 06:17:37;;;;;;;1.85;1.33;;;;;;;20.92;49.03;92828.03;4825678;29;20416;-92
2023/07/28 06:20:06;;;;;;;3.35;1.33;;;;;;;20.92;49.20;92828.03;4851482;29;20034;-92
2023/07/28 06:22:34;;;;;;;4.53;1.48;;;;;;;20.92;49.18;92830.78;4864395;29;20075;-92
2023/07/28 06:25:17;;;;;;;3.03;1.70;;;;;;;20.95;49.27;92827.69;4885070;29;20037;-92
2023/07/28 06:27:46;;;;;;;2.22;1.42;;;;;;;20.94;49.10;92831.00;4882113;29;20041;-92
2023/07/28 06:30:13;;;;;;;2.05;1.60;;;;;;;20.95;49.00;92835.94;4877144;29;20072;-92
2023/07/28 06:32:52;;;;;;;5.13;1.70;;;;;;;20.96;48.95;92831.94;4867212;29;20055;-92
2023/07/28 06:35:22;;;;;;;2.42;1.70;;;;;;;20.97;49.19;92833.41;4881299;29;20048;-92
2023/07/28 06:37:53;;;;;;;2.45;1.67;;;;;;;21.00;48.90;92835.03;4900643;29;20059;-92
2023/07/28 06:40:35;;;;;;;2.13;1.50;;;;;;;21.01;49.49;92833.03;4912322;29;20044;-91
2023/07/28 06:43:07;;;;;;;1.42;1.33;;;;;;;21.03;49.23;92844.94;4893187;29;20427;-92
2023/07/28 06:45:35;;;;;;;7.53;2.10;;;;;;;21.09;49.54;92850.28;4936893;29;20052;-92
2023/07/28 06:48:25;;;;;;;5.63;1.60;;;;;;;21.07;49.41;92847.34;4909531;29;20059;-92
2023/07/28 06:51:15;;;;;;;7.15;1.88;;;;;;;21.07;49.20;92841.84;4915923;29;20067;-93
2023/07/28 06:54:00;;;;;;;2.58;1.48;;;;;;;21.10;49.32;92849.75;4954121;29;20079;-93
2023/07/28 06:56:27;;;;;;;2.88;1.50;;;;;;;21.09;49.49;92856.53;4921194;28;20043;-93
2023/07/28 06:58:53;;;;;;;8.35;2.25;;;;;;;21.13;49.48;92848.69;4922914;29;20043;-93
2023/07/28 07:01:29;;;;;;;2.03;1.50;;;;;;;21.13;49.86;92853.44;4930025;29;20050;-92
2023/07/28 07:03:56;;;;;;;2.60;1.95;;;;;;;21.13;49.80;92864.44;4937962;29;20362;-93
2023/07/28 07:06:21;;;;;;;2.45;2.03;;;;;;;21.15;49.48;92856.38;4958413;28;20101;-92
2023/07/28 07:08:47;;;;;;;4.00;1.92;;;;;;;21.15;49.59;92848.88;4959814;28;20042;-93
2023/07/28 07:11:13;;;;;;;2.47;1.90;;;;;;;21.12;49.43;92854.72;4945416;28;20047;-93
2023/07/28 07:13:38;;;;;;;8.52;2.33;;;;;;;21.15;49.63;92854.38;4975360;28;20054;-93
2023/07/28 07:16:06;;;;;;;9.27;2.00;;;;;;;21.18;49.61;92852.56;4990245;28;20030;-92
2023/07/28 07:18:32;;;;;;;2.65;1.90;;;;;;;21.18;49.51;92867.03;4999870;28;20060;-93
2023/07/28 07:21:02;;;;;;;3.17;1.50;;;;;;;21.22;49.75;92860.47;4984044;28;20081;-93
2023/07/28 07:23:29;;;;;;;2.17;1.58;;;;;;;21.20;49.94;92875.50;4992233;28;20517;-92
2023/07/28 07:26:03;;;;;;;2.10;1.80;;;;;;;21.23;49.52;92870.91;5004594;28;20120;-92
2023/07/28 07:28:31;;;;;;;5.80;1.80;;;;;;;21.23;49.59;92865.41;4999441;28;20099;-92
2023/07/28 07:31:13;;;;;;;2.85;2.03;;;;;;;21.25;49.33;92881.38;4968302;28;20034;-93
2023/07/28 07:33:49;;;;;;;3.30;1.90;;;;;;;21.26;49.61;92877.34;4998243;28;20572;-92
2023/07/28 07:36:17;;;;;;;2.78;2.03;;;;;;;21.26;49.77;92880.09;4986573;28;20039;-92
2023/07/28 07:38:45;;;;;;;1.85;1.38;;;;;;;21.26;49.74;92871.84;5003783;28;20068;-93
2023/07/28 07:41:19;;;;;;;6.78;1.80;;;;;;;21.29;49.55;92885.25;4948908;28;20054;-93
2023/07/28 07:43:50;;;;;;;2.45;1.40;;;;;;;21.31;49.57;92881.94;4941213;28;20076;-92
2023/07/28 07:46:19;;;;;;;2.40;1.70;;;;;;;21.29;49.93;92890.75;4947820;28;20664;-93
2023/07/28 07:48:44;;;;;;;3.25;1.83;;;;;;;21.34;49.67;92891.88;4959762;28;20093;-92
2023/07/28 07:51:10;;;;;;;1.85;1.42;;;;;;;21.31;49.94;92888.19;4939938;28;20047;-93
2023/07/28 07:53:37;;;;;;;3.75;1.60;;;;;;;21.32;49.93;92897.19;4954810;28;20061;-92
2023/07/28 07:56:11;;;;;;;1.70;1.45;;;;;;;21.31;49.92;92890.19;4941698;28;20047;-92
2023/07/28 07:58:39;;;;;;;2.78;1.95;;;;;;;21.36;50.17;92892.81;4940612;28;20169;-92
2023/07/28 08:01:04;;;;;;;2.20;1.73;;;;;;;21.30;50.09;92892.22;4972165;28;20077;-92
2023/07/28 08:03:30;;;;;;;2.05;1.73;;;;;;;21.30;49.99;92894.97;4956477;28;20035;-94
2023/07/28 08:05:55;;;;;;;2.88;1.27;;;;;;;21.30;50.63;92888.72;4972812;28;20039;-93
2023/07/28 08:08:22;;;;;;;2.47;1.70;;;;;;;21.32;50.30;92897.91;4956361;28;20043;-94
2023/07/28 08:10:49;;;;;;;3.40;1.52;;;;;;;21.32;50.68;92903.41;4958220;28;20042;-95
2023/07/28 08:13:16;;;;;;;2.72;1.75;;;;;;;21.32;50.66;92908.16;4973194;28;20046;-94
2023/07/28 08:15:45;;;;;;;2.75;1.80;;;;;;;21.31;50.69;92895.69;4933499;28;20054;-93
2023/07/28 08:18:11;;;;;;;1.50;1.40;;;;;;;21.41;50.44;92902.19;4969705;28;20041;-94
2023/07/28 08:20:38;;;;;;;2.78;1.63;;;;;;;21.37;50.74;92912.78;4981713;28;20053;-92
2023/07/28 08:23:04;;;;;;;2.17;1.50;;;;;;;21.32;50.98;92913.66;4980563;28;20482;-93
2023/07/28 08:25:30;;;;;;;5.10;1.83;;;;;;;21.36;50.93;92914.06;4980472;28;20093;-94
2023/07/28 08:27:55;;;;;;;5.95;1.83;;;;;;;21.32;50.70;92921.91;4984672;28;20050;-92
2023/07/28 08:30:21;;;;;;;3.92;1.60;;;;;;;21.30;51.35;92930.72;5023112;28;20049;-93
2023/07/28 08:32:50;;;;;;;1.65;1.55;;;;;;;21.33;50.96;92926.16;5040967;28;20048;-93
2023/07/28 08:35:24;;;;;;;8.27;1.88;;;;;;;21.33;51.34;92934.38;5030223;28;20123;-92
2023/07/28 08:37:50;;;;;;;1.58;1.27;;;;;;;21.35;51.17;92942.84;4980901;28;20398;-93
2023/07/28 08:40:21;;;;;;;4.65;1.58;;;;;;;21.30;51.45;92941.69;5003271;28;20045;-93
2023/07/28 08:42:49;;;;;;;1.73;1.40;;;;;;;21.30;51.20;92940.97;5016113;28;20030;-93
2023/07/28 08:45:29;;;;;;;1.50;1.23;;;;;;;21.28;51.41;92944.25;4978234;28;20041;-92
2023/07/28 08:48:00;;;;;;;2.03;1.58;;;;;;;21.27;51.34;92948.28;4988364;28;20039;-92
2023/07/28 08:50:26;;;;;;;2.45;1.70;;;;;;;21.29;51.80;92953.25;4958762;28;20046;-93
2023/07/28 08:52:56;;;;;;;2.50;1.40;;;;;;;21.29;51.66;92947.75;4942845;28;20039;-92
2023/07/28 08:55:25;;;;;;;1.55;1.45;;;;;;;21.29;51.76;92953.25;4932670;28;20046;-93
2023/07/28 08:57:57;;;;;;;1.80;1.48;;;;;;;21.28;51.72;92952.50;4925293;29;20526;-92
2023/07/28 09:00:28;;;;;;;2.50;1.63;;;;;;;21.29;51.94;92942.97;4929504;29;20059;-92
2023/07/28 09:03:08;;;;;;;2.38;1.98;;;;;;;21.29;52.12;92948.47;4926219;29;20108;-92
2023/07/28 09:05:33;;;;;;;2.05;1.70;;;;;;;21.35;52.00;92940.09;4914027;29;20058;-93
2023/07/28 09:08:02;;;;;;;4.15;1.33;;;;;;;21.34;52.01;92947.59;4913339;28;20039;-92
2023/07/28 09:10:40;;;;;;;2.97;1.75;;;;;;;21.36;52.02;92941.56;4951760;28;20051;-91
2023/07/28 09:13:09;;;;;;;2.33;1.27;;;;;;;21.29;52.04;92945.00;4952597;28;20077;-92
2023/07/28 09:15:38;;;;;;;3.47;1.60;;;;;;;21.31;52.12;92948.69;4970483;28;20043;-92
2023/07/28 09:18:03;;;;;;;3.70;1.50;;;;;;;21.30;52.44;92943.72;4946872;28;20122;-91
2023/07/28 09:20:35;;;;;;;2.88;1.73;;;;;;;21.31;52.44;92943.19;4940996;29;20375;-92
2023/07/28 09:23:02;;;;;;;1.63;1.30;;;;;;;21.31;52.51;92951.44;4938165;29;20052;-91
2023/07/28 09:25:28;;;;;;;3.10;1.95;;;;;;;21.36;52.41;92947.06;4926316;29;21041;-92
2023/07/28 09:27:53;;;;;;;1.88;1.50;;;;;;;21.36;52.46;92947.06;4922282;29;20039;-93
2023/07/28 09:30:19;;;;;;;2.25;1.45;;;;;;;21.33;52.20;92945.38;4948263;28;20049;-94
2023/07/28 09:32:49;;;;;;;3.47;1.45;;;;;;;21.36;52.58;92955.31;4947732;28;20042;-94
2023/07/28 09:35:14;;;;;;;4.05;1.85;;;;;;;21.34;52.61;92947.59;4944163;28;20066;-93
2023/07/28 09:37:42;;;;;;;1.95;1.45;;;;;;;21.36;52.54;92949.81;4967659;28;20061;-92
2023/07/28 09:40:11;;;;;;;2.08;1.67;;;;;;;21.38;52.53;92950.00;4952992;28;20073;-93
2023/07/28 09:42:40;;;;;;;3.60;1.40;;;;;;;21.39;52.61;92946.72;4970391;28;20054;-92
2023/07/28 09:45:06;;;;;;;5.78;2.03;;;;;;;21.40;52.79;92939.22;4977329;28;20087;-92
2023/07/28 09:47:33;;;;;;;3.97;1.75;;;;;;;21.38;52.76;92945.25;4995485;28;20049;-92
2023/07/28 09:50:00;;;;;;;3.00;1.80;;;;;;;21.39;52.99;92943.22;4992826;28;20037;-91
2023/07/28 09:52:25;;;;;;;4.88;1.77;;;;;;;21.43;52.61;92941.63;5020479;28;20128;-93
2023/07/28 09:54:51;;;;;;;2.78;1.90;;;;;;;21.39;52.94;92937.72;5014651;28;20116;-93
2023/07/28 09:57:20;;;;;;;1.70;1.50;;;;;;;21.39;52.81;92934.97;5012994;28;20048;-93
2023/07/28 09:59:47;;;;;;;4.32;1.63;;;;;;;21.38;52.94;92931.50;5014313;28;20049;-93
2023/07/28 10:02:12;;;;;;;2.05;1.60;;;;;;;21.35;53.01;92924.31;5014027;28;20099;-93
2023/07/28 10:04:38;;;;;;;4.13;1.88;;;;;;;21.38;52.97;92939.75;5028115;28;20038;-92
2023/07/28 10:07:05;;;;;;;1.50;1.30;;;;;;;21.37;53.12;92940.28;5019167;28;20034;-92
2023/07/28 10:09:30;;;;;;;4.95;1.50;;;;;;;21.36;53.02;92942.28;5006608;28;20517;-92
2023/07/28 10:11:56;;;;;;;2.28;1.52;;;;;;;21.39;52.81;92945.97;5012407;28;20050;-92
2023/07/28 10:14:31;;;;;;;2.50;1.40;;;;;;;21.37;53.00;92927.28;5031344;28;20064;-93
2023/07/28 10:16:58;;;;;;;2.30;1.52;;;;;;;21.43;52.99;92936.09;5015987;28;20033;-92
2023/07/28 10:19:27;;;;;;;1.90;1.70;;;;;;;21.39;52.71;92938.47;5014506;28;20107;-92
2023/07/28 10:22:00;;;;;;;3.57;1.53;;;;;;;21.38;52.97;92933.50;5021620;28;20041;-93
2023/07/28 10:24:53;;;;;;;2.10;1.58;;;;;;;21.37;52.88;92927.28;5014735;28;20273;-91
2023/07/28 10:27:44;;;;;;;2.55;2.20;;;;;;;21.36;52.96;92931.31;5041672;28;20048;-93
2023/07/28 10:30:13;;;;;;;2.45;1.70;;;;;;;21.38;53.07;92933.50;5014764;28;20071;-93
2023/07/28 10:32:41;;;;;;;2.67;1.60;;;;;;;21.36;53.09;92931.31;5013168;28;20106;-92
2023/07/28 10:35:08;;;;;;;2.20;1.40;;;;;;;21.37;52.71;92932.78;5004677;28;20456;-93
2023/07/28 10:37:35;;;;;;;9.80;2.10;;;;;;;21.35;53.01;92937.34;5015631;28;20041;-94
2023/07/28 10:40:30;;;;;;;2.22;1.48;;;;;;;21.35;53.24;92942.84;5015043;28;20399;-94
2023/07/28 10:42:55;;;;;;;1.55;1.35;;;;;;;21.37;53.33;92943.78;5047790;28;20041;-93
2023/07/28 10:45:22;;;;;;;3.25;1.85;;;;;;;21.35;53.44;92943.56;5026050;28;20040;-93
2023/07/28 10:47:48;;;;;;;2.70;1.67;;;;;;;21.34;53.23;92957.84;5009154;28;20399;-93
2023/07/28 10:50:14;;;;;;;2.10;1.80;;;;;;;21.32;53.62;92949.41;5029926;28;20033;-92
2023/07/28 10:52:43;;;;;;;1.92;1.55;;;;;;;21.30;53.53;92949.22;5019069;28;20041;-92
2023/07/28 10:55:22;;;;;;;2.08;1.67;;;;;;;21.31;53.60;92964.44;4995870;28;20099;-93
2023/07/28 10:57:48;;;;;;;2.10;1.73;;;;;;;21.30;53.63;92962.97;5012500;28;20069;-94
2023/07/28 11:00:16;;;;;;;2.75;1.58;;;;;;;21.29;53.59;92962.22;4996433;28;20048;-92
2023/07/28 11:02:42;;;;;;;2.47;1.98;;;;;;;21.30;53.59;92963.69;5018498;28;20037;-91
2023/07/28 11:05:20;;;;;;;3.20;1.60;;;;;;;21.28;53.14;92969.00;5034886;28;20463;-93
2023/07/28 11:07:45;;;;;;;3.50;1.85;;;;;;;21.27;53.51;92962.03;5019653;28;20033;-92
2023/07/28 11:10:17;;;;;;;2.20;1.80;;;;;;;21.28;53.57;92966.25;5017961;28;20053;-93
2023/07/28 11:12:45;;;;;;;2.35;1.77;;;;;;;21.27;53.64;92975.78;5020702;28;20044;-92
2023/07/28 11:15:11;;;;;;;2.35;1.98;;;;;;;21.27;53.88;92969.53;5018489;28;20037;-93
2023/07/28 11:17:39;;;;;;;2.75;2.10;;;;;;;21.29;53.66;92977.97;5034733;28;20033;-93
2023/07/28 11:20:15;;;;;;;2.83;2.00;;;;;;;21.26;53.78;92981.81;5031152;28;20592;-94
2023/07/28 11:22:41;;;;;;;3.22;1.95;;;;;;;21.25;53.56;92969.34;5020027;28;20096;-92
2023/07/28 11:25:09;;;;;;;3.50;2.47;;;;;;;21.22;53.80;92973.91;5017817;28;20131;-93
2023/07/28 11:27:35;;;;;;;2.63;1.80;;;;;;;21.24;53.70;92968.59;5035283;28;20037;-92
2023/07/28 11:30:01;;;;;;;2.60;2.00;;;;;;;21.26;53.80;92971.56;5017917;28;20134;-92
2023/07/28 11:32:26;;;;;;;2.53;2.00;;;;;;;21.26;54.18;92974.28;5034825;28;20042;-93
2023/07/28 11:34:52;;;;;;;4.35;2.40;;;;;;;21.22;54.16;92968.41;5018634;28;20398;-93
2023/07/28 11:37:18;;;;;;;4.30;2.00;;;;;;;21.24;54.06;92970.63;5017083;28;20048;-93
2023/07/28 11:39:43;;;;;;;4.85;2.55;;;;;;;;;;5034764;28;20052;-92
2023/07/28 11:42:08;;;;;;;4.90;2.20;;;;;;;21.23;54.31;92967.13;5033363;28;20466;-93
2023/07/28 11:44:36;;;;;;;2.55;1.88;;;;;;;21.22;53.93;92959.44;5018167;28;20509;-93
2023/07/28 11:47:04;;;;;;;3.03;2.33;;;;;;;21.24;54.31;92970.63;5019049;28;20483;-92
2023/07/28 11:49:30;;;;;;;5.20;2.35;;;;;;;21.26;54.31;92968.81;5019359;28;20091;-94